sensor_id;sensor_type;location;lat;lon;timestamp;temperature;humidity
76577;DHT22;65441;44.748;37.600;2023-01-29T00:00:19;9.42;87.83
76577;DHT22;65441;44.748;37.600;2023-01-29T00:02:48;9.25;89.46
76577;DHT22;65441;44.748;37.600;2023-01-29T00:05:17;9.15;90.11
76577;DHT22;65441;44.748;37.600;2023-01-29T00:07:45;9.48;90.53
76577;DHT22;65441;44.748;37.600;2023-01-29T00:10:14;10.07;87.49
76577;DHT22;65441;44.748;37.600;2023-01-29T00:12:43;10.63;85.27
76577;DHT22;65441;44.748;37.600;2023-01-29T00:15:13;10.86;84.50
76577;DHT22;65441;44.748;37.600;2023-01-29T00:17:43;10.65;84.45
76577;DHT22;65441;44.748;37.600;2023-01-29T00:20:12;10.42;85.67
76577;DHT22;65441;44.748;37.600;2023-01-29T00:22:41;10.99;85.29
76577;DHT22;65441;44.748;37.600;2023-01-29T00:25:12;10.94;78.17
76577;DHT22;65441;44.748;37.600;2023-01-29T00:27:41;10.99;77.92
76577;DHT22;65441;44.748;37.600;2023-01-29T00:30:11;10.89;79.80
76577;DHT22;65441;44.748;37.600;2023-01-29T00:32:40;10.69;79.49
76577;DHT22;65441;44.748;37.600;2023-01-29T00:35:10;10.56;80.33
76577;DHT22;65441;44.748;37.600;2023-01-29T00:37:39;10.43;80.81
76577;DHT22;65441;44.748;37.600;2023-01-29T00:40:09;10.45;81.86
76577;DHT22;65441;44.748;37.600;2023-01-29T00:42:37;10.66;83.78
76577;DHT22;65441;44.748;37.600;2023-01-29T00:45:23;10.85;83.27
76577;DHT22;65441;44.748;37.600;2023-01-29T00:47:52;10.86;79.37
76577;DHT22;65441;44.748;37.600;2023-01-29T00:50:23;10.66;82.26
76577;DHT22;65441;44.748;37.600;2023-01-29T00:52:51;10.16;84.51
76577;DHT22;65441;44.748;37.600;2023-01-29T00:55:23;9.89;85.89
76577;DHT22;65441;44.748;37.600;2023-01-29T00:57:51;9.76;85.98
76577;DHT22;65441;44.748;37.600;2023-01-29T01:00:20;9.57;86.06
76577;DHT22;65441;44.748;37.600;2023-01-29T01:02:50;9.53;86.63
76577;DHT22;65441;44.748;37.600;2023-01-29T01:05:35;9.80;84.47
76577;DHT22;65441;44.748;37.600;2023-01-29T01:08:05;9.66;84.92
76577;DHT22;65441;44.748;37.600;2023-01-29T01:11:00;10.36;85.17
76577;DHT22;65441;44.748;37.600;2023-01-29T01:13:28;10.54;78.88
76577;DHT22;65441;44.748;37.600;2023-01-29T01:15:58;10.49;78.27
76577;DHT22;65441;44.748;37.600;2023-01-29T01:18:29;10.39;82.22
76577;DHT22;65441;44.748;37.600;2023-01-29T01:20:59;10.21;81.30
76577;DHT22;65441;44.748;37.600;2023-01-29T01:23:27;10.41;79.35
76577;DHT22;65441;44.748;37.600;2023-01-29T01:25:59;10.36;78.38
76577;DHT22;65441;44.748;37.600;2023-01-29T01:28:28;10.49;80.24
76577;DHT22;65441;44.748;37.600;2023-01-29T01:30:57;10.26;76.41
76577;DHT22;65441;44.748;37.600;2023-01-29T01:33:25;9.92;77.13
76577;DHT22;65441;44.748;37.600;2023-01-29T01:35:54;9.66;79.32
76577;DHT22;65441;44.748;37.600;2023-01-29T01:38:24;9.48;82.36
76577;DHT22;65441;44.748;37.600;2023-01-29T01:40:53;10.00;82.13
76577;DHT22;65441;44.748;37.600;2023-01-29T01:43:22;10.07;81.02
76577;DHT22;65441;44.748;37.600;2023-01-29T01:45:53;10.34;77.98
76577;DHT22;65441;44.748;37.600;2023-01-29T01:48:27;10.03;76.02
76577;DHT22;65441;44.748;37.600;2023-01-29T01:50:58;10.04;75.38
76577;DHT22;65441;44.748;37.600;2023-01-29T01:53:34;9.78;78.07
76577;DHT22;65441;44.748;37.600;2023-01-29T01:56:07;9.68;79.66
76577;DHT22;65441;44.748;37.600;2023-01-29T01:58:39;9.42;79.34
76577;DHT22;65441;44.748;37.600;2023-01-29T02:01:10;9.31;81.33
76577;DHT22;65441;44.748;37.600;2023-01-29T02:03:42;9.77;80.90
76577;DHT22;65441;44.748;37.600;2023-01-29T02:06:29;10.16;79.30
76577;DHT22;65441;44.748;37.600;2023-01-29T02:09:19;10.22;76.88
76577;DHT22;65441;44.748;37.600;2023-01-29T02:12:03;10.30;76.40
76577;DHT22;65441;44.748;37.600;2023-01-29T02:14:32;10.08;73.19
76577;DHT22;65441;44.748;37.600;2023-01-29T02:17:05;10.04;78.59
76577;DHT22;65441;44.748;37.600;2023-01-29T02:19:43;9.47;76.44
76577;DHT22;65441;44.748;37.600;2023-01-29T02:22:27;9.15;77.96
76577;DHT22;65441;44.748;37.600;2023-01-29T02:25:24;9.10;78.48
76577;DHT22;65441;44.748;37.600;2023-01-29T02:28:13;9.17;78.21
76577;DHT22;65441;44.748;37.600;2023-01-29T02:30:50;9.18;80.13
76577;DHT22;65441;44.748;37.600;2023-01-29T02:33:29;9.23;76.58
76577;DHT22;65441;44.748;37.600;2023-01-29T02:36:10;9.20;79.70
76577;DHT22;65441;44.748;37.600;2023-01-29T02:38:44;8.97;76.23
76577;DHT22;65441;44.748;37.600;2023-01-29T02:41:24;8.86;77.74
76577;DHT22;65441;44.748;37.600;2023-01-29T02:43:58;8.75;77.48
76577;DHT22;65441;44.748;37.600;2023-01-29T02:46:33;8.80;75.67
76577;DHT22;65441;44.748;37.600;2023-01-29T02:49:09;9.08;78.59
76577;DHT22;65441;44.748;37.600;2023-01-29T02:51:48;9.45;77.75
76577;DHT22;65441;44.748;37.600;2023-01-29T02:54:20;9.75;75.11
76577;DHT22;65441;44.748;37.600;2023-01-29T02:56:54;9.48;73.75
76577;DHT22;65441;44.748;37.600;2023-01-29T02:59:30;9.24;70.91
76577;DHT22;65441;44.748;37.600;2023-01-29T03:02:04;9.03;77.78
76577;DHT22;65441;44.748;37.600;2023-01-29T03:04:39;8.74;76.31
76577;DHT22;65441;44.748;37.600;2023-01-29T03:07:16;8.23;74.48
76577;DHT22;65441;44.748;37.600;2023-01-29T03:10:12;8.37;78.56
76577;DHT22;65441;44.748;37.600;2023-01-29T03:12:45;8.67;77.71
76577;DHT22;65441;44.748;37.600;2023-01-29T03:15:21;8.31;73.20
76577;DHT22;65441;44.748;37.600;2023-01-29T03:18:12;7.58;78.60
76577;DHT22;65441;44.748;37.600;2023-01-29T03:20:46;7.26;82.19
76577;DHT22;65441;44.748;37.600;2023-01-29T03:23:21;7.78;83.55
76577;DHT22;65441;44.748;37.600;2023-01-29T03:26:10;8.39;81.11
76577;DHT22;65441;44.748;37.600;2023-01-29T03:28:59;8.79;76.21
76577;DHT22;65441;44.748;37.600;2023-01-29T03:31:47;8.13;74.60
76577;DHT22;65441;44.748;37.600;2023-01-29T03:34:39;7.89;74.53
76577;DHT22;65441;44.748;37.600;2023-01-29T03:37:14;7.58;75.84
76577;DHT22;65441;44.748;37.600;2023-01-29T03:39:45;7.38;76.86
76577;DHT22;65441;44.748;37.600;2023-01-29T03:42:19;7.00;79.37
76577;DHT22;65441;44.748;37.600;2023-01-29T03:44:53;6.80;77.47
76577;DHT22;65441;44.748;37.600;2023-01-29T03:47:39;6.70;76.53
76577;DHT22;65441;44.748;37.600;2023-01-29T03:50:11;6.59;77.69
76577;DHT22;65441;44.748;37.600;2023-01-29T03:52:48;6.45;78.70
76577;DHT22;65441;44.748;37.600;2023-01-29T03:55:22;6.36;79.03
76577;DHT22;65441;44.748;37.600;2023-01-29T03:57:56;6.23;79.01
76577;DHT22;65441;44.748;37.600;2023-01-29T04:00:29;6.17;81.25
76577;DHT22;65441;44.748;37.600;2023-01-29T04:03:08;6.08;81.72
76577;DHT22;65441;44.748;37.600;2023-01-29T04:05:44;6.08;80.87
76577;DHT22;65441;44.748;37.600;2023-01-29T04:08:29;6.01;81.65
76577;DHT22;65441;44.748;37.600;2023-01-29T04:11:01;5.99;82.31
76577;DHT22;65441;44.748;37.600;2023-01-29T04:13:33;6.02;82.65
76577;DHT22;65441;44.748;37.600;2023-01-29T04:16:03;6.11;83.10
76577;DHT22;65441;44.748;37.600;2023-01-29T04:18:55;6.02;84.84
76577;DHT22;65441;44.748;37.600;2023-01-29T04:21:33;6.11;88.21
76577;DHT22;65441;44.748;37.600;2023-01-29T04:24:05;6.34;89.00
76577;DHT22;65441;44.748;37.600;2023-01-29T04:26:54;6.57;87.47
76577;DHT22;65441;44.748;37.600;2023-01-29T04:29:39;6.67;86.00
76577;DHT22;65441;44.748;37.600;2023-01-29T04:32:17;6.76;87.17
76577;DHT22;65441;44.748;37.600;2023-01-29T04:34:59;6.82;85.37
76577;DHT22;65441;44.748;37.600;2023-01-29T04:37:34;6.88;84.64
76577;DHT22;65441;44.748;37.600;2023-01-29T04:40:14;6.93;84.48
76577;DHT22;65441;44.748;37.600;2023-01-29T04:42:49;6.89;83.81
76577;DHT22;65441;44.748;37.600;2023-01-29T04:45:28;6.93;84.10
76577;DHT22;65441;44.748;37.600;2023-01-29T04:48:07;7.00;84.60
76577;DHT22;65441;44.748;37.600;2023-01-29T04:50:45;6.98;84.39
76577;DHT22;65441;44.748;37.600;2023-01-29T04:53:24;6.99;85.16
76577;DHT22;65441;44.748;37.600;2023-01-29T04:55:57;6.96;86.32
76577;DHT22;65441;44.748;37.600;2023-01-29T04:58:32;7.12;86.02
76577;DHT22;65441;44.748;37.600;2023-01-29T05:01:04;7.18;85.60
76577;DHT22;65441;44.748;37.600;2023-01-29T05:03:36;7.14;85.66
76577;DHT22;65441;44.748;37.600;2023-01-29T05:06:09;7.26;85.09
76577;DHT22;65441;44.748;37.600;2023-01-29T05:08:38;7.28;85.19
76577;DHT22;65441;44.748;37.600;2023-01-29T05:11:07;7.28;85.38
76577;DHT22;65441;44.748;37.600;2023-01-29T05:13:39;7.39;85.34
76577;DHT22;65441;44.748;37.600;2023-01-29T05:16:14;7.30;86.13
76577;DHT22;65441;44.748;37.600;2023-01-29T05:18:44;7.31;86.27
76577;DHT22;65441;44.748;37.600;2023-01-29T05:21:15;7.31;86.45
76577;DHT22;65441;44.748;37.600;2023-01-29T05:23:43;7.57;85.91
76577;DHT22;65441;44.748;37.600;2023-01-29T05:26:23;7.71;85.13
76577;DHT22;65441;44.748;37.600;2023-01-29T05:29:09;7.77;85.16
76577;DHT22;65441;44.748;37.600;2023-01-29T05:31:38;7.77;85.38
76577;DHT22;65441;44.748;37.600;2023-01-29T05:34:07;7.85;85.74
76577;DHT22;65441;44.748;37.600;2023-01-29T05:36:37;7.93;86.48
76577;DHT22;65441;44.748;37.600;2023-01-29T05:39:06;8.06;86.21
76577;DHT22;65441;44.748;37.600;2023-01-29T05:41:35;8.09;85.90
76577;DHT22;65441;44.748;37.600;2023-01-29T05:44:04;8.14;86.27
76577;DHT22;65441;44.748;37.600;2023-01-29T05:46:33;8.13;86.99
76577;DHT22;65441;44.748;37.600;2023-01-29T05:49:02;8.16;86.64
76577;DHT22;65441;44.748;37.600;2023-01-29T05:51:31;8.17;87.22
76577;DHT22;65441;44.748;37.600;2023-01-29T05:54:01;8.21;87.51
76577;DHT22;65441;44.748;37.600;2023-01-29T05:56:30;8.41;87.41
76577;DHT22;65441;44.748;37.600;2023-01-29T05:58:59;8.46;87.03
76577;DHT22;65441;44.748;37.600;2023-01-29T06:01:27;8.52;86.97
76577;DHT22;65441;44.748;37.600;2023-01-29T06:03:56;8.61;86.67
76577;DHT22;65441;44.748;37.600;2023-01-29T06:06:25;8.73;86.70
76577;DHT22;65441;44.748;37.600;2023-01-29T06:08:55;8.79;87.14
76577;DHT22;65441;44.748;37.600;2023-01-29T06:11:25;8.95;87.06
76577;DHT22;65441;44.748;37.600;2023-01-29T06:13:55;9.12;86.51
76577;DHT22;65441;44.748;37.600;2023-01-29T06:16:24;9.25;86.56
76577;DHT22;65441;44.748;37.600;2023-01-29T06:18:54;9.42;85.90
76577;DHT22;65441;44.748;37.600;2023-01-29T06:21:23;9.46;86.24
76577;DHT22;65441;44.748;37.600;2023-01-29T06:23:52;9.50;86.62
76577;DHT22;65441;44.748;37.600;2023-01-29T06:26:20;9.51;87.08
76577;DHT22;65441;44.748;37.600;2023-01-29T06:28:51;9.75;86.78
76577;DHT22;65441;44.748;37.600;2023-01-29T06:31:20;9.82;86.32
76577;DHT22;65441;44.748;37.600;2023-01-29T06:33:48;9.85;86.32
76577;DHT22;65441;44.748;37.600;2023-01-29T06:36:17;10.04;84.40
76577;DHT22;65441;44.748;37.600;2023-01-29T06:38:46;10.10;84.69
76577;DHT22;65441;44.748;37.600;2023-01-29T06:41:25;10.52;83.30
76577;DHT22;65441;44.748;37.600;2023-01-29T06:43:56;10.58;82.38
76577;DHT22;65441;44.748;37.600;2023-01-29T06:46:27;10.64;82.01
76577;DHT22;65441;44.748;37.600;2023-01-29T06:48:57;10.73;82.29
76577;DHT22;65441;44.748;37.600;2023-01-29T06:51:26;10.80;82.22
76577;DHT22;65441;44.748;37.600;2023-01-29T06:54:01;10.89;82.47
76577;DHT22;65441;44.748;37.600;2023-01-29T06:56:29;10.99;82.73
76577;DHT22;65441;44.748;37.600;2023-01-29T06:59:00;10.95;82.62
76577;DHT22;65441;44.748;37.600;2023-01-29T07:01:33;11.04;82.36
76577;DHT22;65441;44.748;37.600;2023-01-29T07:04:02;11.08;81.72
76577;DHT22;65441;44.748;37.600;2023-01-29T07:06:31;11.15;81.41
76577;DHT22;65441;44.748;37.600;2023-01-29T07:09:00;11.38;80.77
76577;DHT22;65441;44.748;37.600;2023-01-29T07:11:30;11.49;80.40
76577;DHT22;65441;44.748;37.600;2023-01-29T07:14:00;11.54;80.16
76577;DHT22;65441;44.748;37.600;2023-01-29T07:16:29;11.64;78.38
76577;DHT22;65441;44.748;37.600;2023-01-29T07:18:58;11.87;78.50
76577;DHT22;65441;44.748;37.600;2023-01-29T07:21:26;11.98;79.04
76577;DHT22;65441;44.748;37.600;2023-01-29T07:23:56;12.02;78.46
76577;DHT22;65441;44.748;37.600;2023-01-29T07:26:25;11.93;76.92
76577;DHT22;65441;44.748;37.600;2023-01-29T07:28:54;11.70;76.69
76577;DHT22;65441;44.748;37.600;2023-01-29T07:31:24;11.79;76.03
76577;DHT22;65441;44.748;37.600;2023-01-29T07:33:52;11.63;77.00
76577;DHT22;65441;44.748;37.600;2023-01-29T07:36:22;11.60;76.13
76577;DHT22;65441;44.748;37.600;2023-01-29T07:38:50;11.64;76.98
76577;DHT22;65441;44.748;37.600;2023-01-29T07:41:19;11.70;76.90
76577;DHT22;65441;44.748;37.600;2023-01-29T07:43:48;11.58;76.37
76577;DHT22;65441;44.748;37.600;2023-01-29T07:46:16;11.56;77.14
76577;DHT22;65441;44.748;37.600;2023-01-29T07:48:47;11.59;77.89
76577;DHT22;65441;44.748;37.600;2023-01-29T07:51:15;11.74;77.61
76577;DHT22;65441;44.748;37.600;2023-01-29T07:53:44;11.77;77.50
76577;DHT22;65441;44.748;37.600;2023-01-29T07:56:13;11.71;77.27
76577;DHT22;65441;44.748;37.600;2023-01-29T07:58:44;11.72;77.47
76577;DHT22;65441;44.748;37.600;2023-01-29T08:01:12;11.75;76.82
76577;DHT22;65441;44.748;37.600;2023-01-29T08:03:41;11.82;76.28
76577;DHT22;65441;44.748;37.600;2023-01-29T08:06:11;11.86;76.10
76577;DHT22;65441;44.748;37.600;2023-01-29T08:08:40;11.72;76.39
76577;DHT22;65441;44.748;37.600;2023-01-29T08:11:09;11.72;78.43
76577;DHT22;65441;44.748;37.600;2023-01-29T08:13:40;11.81;77.47
76577;DHT22;65441;44.748;37.600;2023-01-29T08:16:08;11.77;76.84
76577;DHT22;65441;44.748;37.600;2023-01-29T08:18:37;11.78;76.31
76577;DHT22;65441;44.748;37.600;2023-01-29T08:21:08;11.81;75.79
76577;DHT22;65441;44.748;37.600;2023-01-29T08:23:41;11.85;76.25
76577;DHT22;65441;44.748;37.600;2023-01-29T08:26:10;11.72;76.46
76577;DHT22;65441;44.748;37.600;2023-01-29T08:28:39;11.79;76.85
76577;DHT22;65441;44.748;37.600;2023-01-29T08:31:13;11.86;76.84
76577;DHT22;65441;44.748;37.600;2023-01-29T08:33:42;11.74;75.98
76577;DHT22;65441;44.748;37.600;2023-01-29T08:36:10;11.67;76.10
76577;DHT22;65441;44.748;37.600;2023-01-29T08:38:41;11.62;76.80
76577;DHT22;65441;44.748;37.600;2023-01-29T08:41:09;11.66;76.63
76577;DHT22;65441;44.748;37.600;2023-01-29T08:43:38;11.82;75.87
76577;DHT22;65441;44.748;37.600;2023-01-29T08:46:07;12.12;75.69
76577;DHT22;65441;44.748;37.600;2023-01-29T08:48:36;12.17;74.18
76577;DHT22;65441;44.748;37.600;2023-01-29T08:51:05;12.46;72.48
76577;DHT22;65441;44.748;37.600;2023-01-29T08:53:34;12.55;72.63
76577;DHT22;65441;44.748;37.600;2023-01-29T08:56:04;12.64;71.08
76577;DHT22;65441;44.748;37.600;2023-01-29T08:58:33;12.51;71.99
76577;DHT22;65441;44.748;37.600;2023-01-29T09:01:06;12.69;71.93
76577;DHT22;65441;44.748;37.600;2023-01-29T09:03:36;12.79;70.63
76577;DHT22;65441;44.748;37.600;2023-01-29T09:06:08;12.77;70.27
76577;DHT22;65441;44.748;37.600;2023-01-29T09:08:39;12.90;71.90
76577;DHT22;65441;44.748;37.600;2023-01-29T09:11:10;13.05;71.26
76577;DHT22;65441;44.748;37.600;2023-01-29T09:13:39;13.12;69.46
76577;DHT22;65441;44.748;37.600;2023-01-29T09:16:09;13.14;68.06
76577;DHT22;65441;44.748;37.600;2023-01-29T09:18:37;13.31;67.97
76577;DHT22;65441;44.748;37.600;2023-01-29T09:21:06;13.32;66.90
76577;DHT22;65441;44.748;37.600;2023-01-29T09:23:35;13.19;69.20
76577;DHT22;65441;44.748;37.600;2023-01-29T09:26:04;13.47;68.20
76577;DHT22;65441;44.748;37.600;2023-01-29T09:28:35;13.31;68.33
76577;DHT22;65441;44.748;37.600;2023-01-29T09:31:04;13.36;67.78
76577;DHT22;65441;44.748;37.600;2023-01-29T09:33:33;13.61;65.48
76577;DHT22;65441;44.748;37.600;2023-01-29T09:36:02;13.74;65.86
76577;DHT22;65441;44.748;37.600;2023-01-29T09:38:31;13.43;66.17
76577;DHT22;65441;44.748;37.600;2023-01-29T09:41:07;13.41;66.36
76577;DHT22;65441;44.748;37.600;2023-01-29T09:43:46;13.43;66.59
76577;DHT22;65441;44.748;37.600;2023-01-29T09:46:20;13.26;67.36
76577;DHT22;65441;44.748;37.600;2023-01-29T09:48:57;13.20;66.71
76577;DHT22;65441;44.748;37.600;2023-01-29T09:51:33;13.05;67.45
76577;DHT22;65441;44.748;37.600;2023-01-29T09:54:13;12.94;66.72
76577;DHT22;65441;44.748;37.600;2023-01-29T09:56:45;12.92;67.39
76577;DHT22;65441;44.748;37.600;2023-01-29T09:59:18;12.78;67.90
76577;DHT22;65441;44.748;37.600;2023-01-29T10:01:54;12.85;67.49
76577;DHT22;65441;44.748;37.600;2023-01-29T10:08:00;12.71;65.98
76577;DHT22;65441;44.748;37.600;2023-01-29T10:10:39;12.61;66.86
76577;DHT22;65441;44.748;37.600;2023-01-29T10:13:21;12.73;67.91
76577;DHT22;65441;44.748;37.600;2023-01-29T10:16:06;12.65;66.75
76577;DHT22;65441;44.748;37.600;2023-01-29T10:22:16;12.61;66.86
76577;DHT22;65441;44.748;37.600;2023-01-29T10:24:52;12.73;66.40
76577;DHT22;65441;44.748;37.600;2023-01-29T10:27:31;12.73;65.07
76577;DHT22;65441;44.748;37.600;2023-01-29T10:30:02;12.77;65.90
76577;DHT22;65441;44.748;37.600;2023-01-29T10:32:37;12.76;66.98
76577;DHT22;65441;44.748;37.600;2023-01-29T10:35:15;12.77;68.08
76577;DHT22;65441;44.748;37.600;2023-01-29T10:37:48;12.61;67.25
76577;DHT22;65441;44.748;37.600;2023-01-29T10:40:21;12.52;66.88
76577;DHT22;65441;44.748;37.600;2023-01-29T10:42:57;12.65;68.00
76577;DHT22;65441;44.748;37.600;2023-01-29T10:45:32;12.60;67.29
76577;DHT22;65441;44.748;37.600;2023-01-29T10:48:24;12.50;66.72
76577;DHT22;65441;44.748;37.600;2023-01-29T10:51:02;12.43;67.47
76577;DHT22;65441;44.748;37.600;2023-01-29T10:53:42;12.43;68.03
76577;DHT22;65441;44.748;37.600;2023-01-29T10:56:36;12.38;69.20
76577;DHT22;65441;44.748;37.600;2023-01-29T10:59:18;12.38;68.76
76577;DHT22;65441;44.748;37.600;2023-01-29T11:01:50;12.37;69.33
76577;DHT22;65441;44.748;37.600;2023-01-29T11:04:21;12.38;68.46
76577;DHT22;65441;44.748;37.600;2023-01-29T11:06:50;12.36;68.30
76577;DHT22;65441;44.748;37.600;2023-01-29T11:09:26;12.29;67.44
76577;DHT22;65441;44.748;37.600;2023-01-29T11:12:01;12.22;67.53
76577;DHT22;65441;44.748;37.600;2023-01-29T11:14:38;12.25;67.80
76577;DHT22;65441;44.748;37.600;2023-01-29T11:17:14;12.18;68.10
76577;DHT22;65441;44.748;37.600;2023-01-29T11:19:47;12.19;71.29
76577;DHT22;65441;44.748;37.600;2023-01-29T11:22:18;12.07;73.19
76577;DHT22;65441;44.748;37.600;2023-01-29T11:25:07;12.04;73.33
76577;DHT22;65441;44.748;37.600;2023-01-29T11:27:42;11.99;73.77
76577;DHT22;65441;44.748;37.600;2023-01-29T11:30:19;11.87;74.17
76577;DHT22;65441;44.748;37.600;2023-01-29T11:32:51;11.92;73.93
76577;DHT22;65441;44.748;37.600;2023-01-29T11:35:26;11.99;73.98
76577;DHT22;65441;44.748;37.600;2023-01-29T11:38:06;11.96;71.81
76577;DHT22;65441;44.748;37.600;2023-01-29T11:40:39;11.85;71.38
76577;DHT22;65441;44.748;37.600;2023-01-29T11:43:22;11.71;71.95
76577;DHT22;65441;44.748;37.600;2023-01-29T11:45:59;11.62;72.54
76577;DHT22;65441;44.748;37.600;2023-01-29T11:48:39;11.55;71.73
76577;DHT22;65441;44.748;37.600;2023-01-29T11:51:19;11.52;72.46
76577;DHT22;65441;44.748;37.600;2023-01-29T11:53:52;11.39;72.93
76577;DHT22;65441;44.748;37.600;2023-01-29T11:56:24;11.33;72.98
76577;DHT22;65441;44.748;37.600;2023-01-29T11:58:55;11.24;74.28
76577;DHT22;65441;44.748;37.600;2023-01-29T12:01:30;11.25;73.64
76577;DHT22;65441;44.748;37.600;2023-01-29T12:04:00;11.24;74.30
76577;DHT22;65441;44.748;37.600;2023-01-29T12:06:33;11.28;73.79
76577;DHT22;65441;44.748;37.600;2023-01-29T12:09:08;11.37;74.22
76577;DHT22;65441;44.748;37.600;2023-01-29T12:11:37;11.45;73.64
76577;DHT22;65441;44.748;37.600;2023-01-29T12:14:26;11.52;73.83
76577;DHT22;65441;44.748;37.600;2023-01-29T12:16:58;11.71;73.52
76577;DHT22;65441;44.748;37.600;2023-01-29T12:19:34;11.67;73.27
76577;DHT22;65441;44.748;37.600;2023-01-29T12:22:13;11.62;73.25
76577;DHT22;65441;44.748;37.600;2023-01-29T12:24:48;11.57;73.67
76577;DHT22;65441;44.748;37.600;2023-01-29T12:27:23;11.57;73.84
76577;DHT22;65441;44.748;37.600;2023-01-29T12:29:56;11.39;73.28
76577;DHT22;65441;44.748;37.600;2023-01-29T12:32:33;11.41;74.71
76577;DHT22;65441;44.748;37.600;2023-01-29T12:35:08;11.54;74.62
76577;DHT22;65441;44.748;37.600;2023-01-29T12:37:47;11.57;74.11
76577;DHT22;65441;44.748;37.600;2023-01-29T12:40:20;11.58;75.13
76577;DHT22;65441;44.748;37.600;2023-01-29T12:42:56;11.43;76.03
76577;DHT22;65441;44.748;37.600;2023-01-29T12:45:28;11.54;75.56
76577;DHT22;65441;44.748;37.600;2023-01-29T12:48:05;11.57;75.34
76577;DHT22;65441;44.748;37.600;2023-01-29T12:50:36;11.41;75.68
76577;DHT22;65441;44.748;37.600;2023-01-29T12:53:16;11.57;75.86
76577;DHT22;65441;44.748;37.600;2023-01-29T12:55:51;11.57;75.24
76577;DHT22;65441;44.748;37.600;2023-01-29T12:58:22;11.59;75.60
76577;DHT22;65441;44.748;37.600;2023-01-29T13:00:56;11.57;76.09
76577;DHT22;65441;44.748;37.600;2023-01-29T13:03:33;11.45;76.04
76577;DHT22;65441;44.748;37.600;2023-01-29T13:06:09;11.42;75.34
76577;DHT22;65441;44.748;37.600;2023-01-29T13:08:43;11.48;75.40
76577;DHT22;65441;44.748;37.600;2023-01-29T13:11:18;11.41;76.25
76577;DHT22;65441;44.748;37.600;2023-01-29T13:13:55;11.40;76.12
76577;DHT22;65441;44.748;37.600;2023-01-29T13:16:39;11.45;76.18
76577;DHT22;65441;44.748;37.600;2023-01-29T13:19:17;11.20;76.36
76577;DHT22;65441;44.748;37.600;2023-01-29T13:21:50;11.23;76.80
76577;DHT22;65441;44.748;37.600;2023-01-29T13:24:23;11.22;76.57
76577;DHT22;65441;44.748;37.600;2023-01-29T13:26:53;11.19;76.47
76577;DHT22;65441;44.748;37.600;2023-01-29T13:29:23;11.24;76.47
76577;DHT22;65441;44.748;37.600;2023-01-29T13:31:53;11.25;76.23
76577;DHT22;65441;44.748;37.600;2023-01-29T13:34:25;11.31;75.96
76577;DHT22;65441;44.748;37.600;2023-01-29T13:36:58;11.37;75.57
76577;DHT22;65441;44.748;37.600;2023-01-29T13:39:30;11.32;75.57
76577;DHT22;65441;44.748;37.600;2023-01-29T13:42:02;11.14;76.12
76577;DHT22;65441;44.748;37.600;2023-01-29T13:44:47;11.04;77.02
76577;DHT22;65441;44.748;37.600;2023-01-29T13:47:23;10.99;76.97
76577;DHT22;65441;44.748;37.600;2023-01-29T13:49:56;10.84;77.38
76577;DHT22;65441;44.748;37.600;2023-01-29T13:52:34;10.73;78.12
76577;DHT22;65441;44.748;37.600;2023-01-29T13:55:20;10.58;78.76
76577;DHT22;65441;44.748;37.600;2023-01-29T13:57:53;10.74;77.76
76577;DHT22;65441;44.748;37.600;2023-01-29T14:00:55;10.67;77.34
76577;DHT22;65441;44.748;37.600;2023-01-29T14:03:50;10.59;77.95
76577;DHT22;65441;44.748;37.600;2023-01-29T14:06:39;10.65;77.85
76577;DHT22;65441;44.748;37.600;2023-01-29T14:11:58;10.31;78.27
76577;DHT22;65441;44.748;37.600;2023-01-29T14:14:49;10.33;78.41
76577;DHT22;65441;44.748;37.600;2023-01-29T14:17:19;10.41;77.82
76577;DHT22;65441;44.748;37.600;2023-01-29T14:19:49;10.29;78.14
76577;DHT22;65441;44.748;37.600;2023-01-29T14:22:20;10.25;77.85
76577;DHT22;65441;44.748;37.600;2023-01-29T14:24:53;10.08;78.41
76577;DHT22;65441;44.748;37.600;2023-01-29T14:27:27;10.01;78.66
76577;DHT22;65441;44.748;37.600;2023-01-29T14:30:04;9.99;78.64
76577;DHT22;65441;44.748;37.600;2023-01-29T14:32:38;10.03;78.63
76577;DHT22;65441;44.748;37.600;2023-01-29T14:35:17;9.99;78.59
76577;DHT22;65441;44.748;37.600;2023-01-29T14:37:47;10.09;77.60
76577;DHT22;65441;44.748;37.600;2023-01-29T14:40:22;10.04;77.92
76577;DHT22;65441;44.748;37.600;2023-01-29T14:42:58;9.97;78.58
76577;DHT22;65441;44.748;37.600;2023-01-29T14:45:29;9.92;78.66
76577;DHT22;65441;44.748;37.600;2023-01-29T14:48:35;9.90;78.47
76577;DHT22;65441;44.748;37.600;2023-01-29T14:51:09;9.89;78.48
76577;DHT22;65441;44.748;37.600;2023-01-29T14:53:48;9.82;78.41
76577;DHT22;65441;44.748;37.600;2023-01-29T14:56:25;9.78;78.21
76577;DHT22;65441;44.748;37.600;2023-01-29T14:59:03;9.79;78.52
76577;DHT22;65441;44.748;37.600;2023-01-29T15:01:35;9.81;78.92
76577;DHT22;65441;44.748;37.600;2023-01-29T15:04:10;9.84;78.47
76577;DHT22;65441;44.748;37.600;2023-01-29T15:06:44;9.86;78.85
76577;DHT22;65441;44.748;37.600;2023-01-29T15:09:16;9.99;78.43
76577;DHT22;65441;44.748;37.600;2023-01-29T15:11:51;9.98;78.66
76577;DHT22;65441;44.748;37.600;2023-01-29T15:14:31;9.91;79.05
76577;DHT22;65441;44.748;37.600;2023-01-29T15:19:55;9.88;79.16
76577;DHT22;65441;44.748;37.600;2023-01-29T15:22:24;9.82;79.55
76577;DHT22;65441;44.748;37.600;2023-01-29T15:25:04;9.78;80.15
76577;DHT22;65441;44.748;37.600;2023-01-29T15:27:34;9.79;79.82
76577;DHT22;65441;44.748;37.600;2023-01-29T15:30:05;9.65;80.34
76577;DHT22;65441;44.748;37.600;2023-01-29T15:32:36;9.61;80.75
76577;DHT22;65441;44.748;37.600;2023-01-29T15:35:09;9.56;80.91
76577;DHT22;65441;44.748;37.600;2023-01-29T15:37:39;9.51;81.41
76577;DHT22;65441;44.748;37.600;2023-01-29T15:40:14;9.42;81.91
76577;DHT22;65441;44.748;37.600;2023-01-29T15:42:45;9.35;82.32
76577;DHT22;65441;44.748;37.600;2023-01-29T15:45:28;9.35;81.54
76577;DHT22;65441;44.748;37.600;2023-01-29T15:48:02;9.32;82.43
76577;DHT22;65441;44.748;37.600;2023-01-29T15:50:31;9.29;82.42
76577;DHT22;65441;44.748;37.600;2023-01-29T15:53:05;9.24;82.24
76577;DHT22;65441;44.748;37.600;2023-01-29T15:55:35;9.17;82.58
76577;DHT22;65441;44.748;37.600;2023-01-29T15:58:03;9.16;82.84
76577;DHT22;65441;44.748;37.600;2023-01-29T16:00:36;9.12;83.27
76577;DHT22;65441;44.748;37.600;2023-01-29T16:03:13;9.15;83.65
76577;DHT22;65441;44.748;37.600;2023-01-29T16:05:43;9.23;82.47
76577;DHT22;65441;44.748;37.600;2023-01-29T16:08:13;9.26;82.86
76577;DHT22;65441;44.748;37.600;2023-01-29T16:10:42;9.20;83.46
76577;DHT22;65441;44.748;37.600;2023-01-29T16:13:19;9.12;81.86
76577;DHT22;65441;44.748;37.600;2023-01-29T16:15:57;9.06;82.91